createdAt,value
2022-11-13T00:00:11.845Z,8.63
2022-11-13T00:03:04.327Z,8.63
2022-11-13T00:05:36.385Z,8.63
2022-11-13T00:08:08.387Z,8.63
2022-11-13T00:10:40.598Z,8.62
2022-11-13T00:13:12.358Z,8.61
2022-11-13T00:15:44.003Z,8.59
2022-11-13T00:18:15.947Z,8.59
2022-11-13T00:20:47.730Z,8.58
2022-11-13T00:23:19.693Z,8.59
2022-11-13T00:25:52.017Z,8.60
2022-11-13T00:28:24.143Z,8.61
2022-11-13T00:31:01.728Z,8.62
2022-11-13T00:34:01.825Z,8.63
2022-11-13T00:36:27.108Z,8.65
2022-11-13T00:38:59.311Z,8.66
2022-11-13T00:41:31.257Z,8.66
2022-11-13T00:44:04.216Z,8.64
2022-11-13T00:46:36.179Z,8.64
2022-11-13T00:49:08.413Z,8.64
2022-11-13T00:51:40.476Z,8.62
2022-11-13T00:54:12.532Z,8.62
2022-11-13T00:56:44.577Z,8.62
2022-11-13T00:59:16.457Z,8.62
2022-11-13T01:01:48.563Z,8.62
2022-11-13T01:04:20.720Z,8.62
2022-11-13T01:06:52.931Z,8.60
2022-11-13T01:09:24.727Z,8.58
2022-11-13T01:11:59.179Z,8.56
2022-11-13T01:14:31.027Z,8.54
2022-11-13T01:17:03.495Z,8.51
2022-11-13T01:19:35.153Z,8.49
2022-11-13T01:22:07.333Z,8.47
2022-11-13T01:24:39.701Z,8.46
2022-11-13T01:27:13.531Z,8.46
2022-11-13T01:29:46.099Z,8.48
2022-11-13T01:32:18.209Z,8.49
2022-11-13T01:34:50.193Z,8.51
2022-11-13T01:37:22.176Z,8.52
2022-11-13T01:39:54.091Z,8.53
2022-11-13T01:42:26.245Z,8.54
2022-11-13T01:45:01.167Z,8.54
2022-11-13T01:47:33.463Z,8.55
2022-11-13T01:50:05.776Z,8.54
2022-11-13T01:52:40.087Z,8.53
2022-11-13T01:55:14.066Z,8.54
2022-11-13T01:57:46.082Z,8.56
2022-11-13T02:00:19.547Z,8.56
2022-11-13T02:02:53.437Z,8.57
2022-11-13T02:05:24.367Z,8.57
2022-11-13T02:07:56.637Z,8.58
2022-11-13T02:10:28.453Z,8.59
2022-11-13T02:13:00.664Z,8.61
2022-11-13T02:15:34.625Z,8.63
2022-11-13T02:18:06.873Z,8.61
2022-11-13T02:20:46.714Z,8.59
2022-11-13T02:23:25.050Z,8.59
2022-11-13T02:25:57.197Z,8.59
2022-11-13T02:28:29.593Z,8.60
2022-11-13T02:31:09.589Z,8.61
2022-11-13T02:33:41.998Z,8.61
2022-11-13T02:36:14.757Z,8.63
2022-11-13T02:38:47.045Z,8.65
2022-11-13T02:41:18.767Z,8.65
2022-11-13T02:43:50.587Z,8.66
2022-11-13T02:46:22.630Z,8.67
2022-11-13T02:48:54.573Z,8.67
2022-11-13T02:51:26.655Z,8.67
2022-11-13T02:53:58.845Z,8.65
2022-11-13T02:56:30.805Z,8.64
2022-11-13T02:59:03.535Z,8.66
2022-11-13T03:01:35.270Z,8.67
2022-11-13T03:04:07.495Z,8.66
2022-11-13T03:06:39.635Z,8.66
2022-11-13T03:09:11.558Z,8.68
2022-11-13T03:11:43.978Z,8.68
2022-11-13T03:14:16.188Z,8.69
2022-11-13T03:16:48.370Z,8.68
2022-11-13T03:19:20.263Z,8.68
2022-11-13T03:21:55.556Z,8.68
2022-11-13T03:24:27.674Z,8.68
2022-11-13T03:26:59.367Z,8.69
2022-11-13T03:29:31.121Z,8.70
2022-11-13T03:32:04.295Z,8.71
2022-11-13T03:34:36.388Z,8.72
2022-11-13T03:37:08.570Z,8.72
2022-11-13T03:39:40.570Z,8.73
2022-11-13T03:42:12.226Z,8.72
2022-11-13T03:44:44.522Z,8.72
2022-11-13T03:47:16.516Z,8.72
2022-11-13T03:49:48.442Z,8.72
2022-11-13T03:52:20.133Z,8.72
2022-11-13T03:54:51.876Z,8.72
2022-11-13T03:57:24.389Z,8.72
2022-11-13T03:59:57.749Z,8.72
2022-11-13T04:02:31.782Z,8.71
2022-11-13T04:05:04.019Z,8.71
2022-11-13T04:07:38.584Z,8.71
2022-11-13T04:10:12.103Z,8.70
2022-11-13T04:12:43.861Z,8.68
2022-11-13T04:15:16.189Z,8.67
2022-11-13T04:17:49.951Z,8.64
2022-11-13T04:20:22.004Z,8.63
2022-11-13T04:22:53.953Z,8.61
2022-11-13T04:25:25.826Z,8.61
2022-11-13T04:27:57.811Z,8.63
2022-11-13T04:30:29.702Z,8.63
2022-11-13T04:33:01.540Z,8.67
2022-11-13T04:35:33.217Z,8.68
2022-11-13T04:38:05.164Z,8.69
2022-11-13T04:40:37.459Z,8.69
2022-11-13T04:43:09.467Z,8.69
2022-11-13T04:45:41.225Z,8.68
2022-11-13T04:48:13.113Z,8.68
2022-11-13T04:50:44.791Z,8.68
2022-11-13T04:53:16.743Z,8.68
2022-11-13T04:55:48.642Z,8.68
2022-11-13T04:58:20.586Z,8.67
2022-11-13T05:00:52.319Z,8.68
2022-11-13T05:03:25.079Z,8.68
2022-11-13T05:05:57.714Z,8.68
2022-11-13T05:08:30.058Z,8.65
2022-11-13T05:11:02.523Z,8.61
2022-11-13T05:13:36.669Z,8.60
2022-11-13T05:16:11.460Z,8.57
2022-11-13T05:18:43.858Z,8.55
2022-11-13T05:21:16.169Z,8.53
2022-11-13T05:23:47.924Z,8.54
2022-11-13T05:26:19.836Z,8.54
2022-11-13T05:28:51.838Z,8.52
2022-11-13T05:31:23.559Z,8.51
2022-11-13T05:33:55.833Z,8.51
2022-11-13T05:36:28.396Z,8.51
2022-11-13T05:39:00.485Z,8.53
2022-11-13T05:41:32.593Z,8.53
2022-11-13T05:44:04.871Z,8.53
2022-11-13T05:46:37.521Z,8.53
2022-11-13T05:49:10.387Z,8.53
2022-11-13T05:51:45.049Z,8.53
2022-11-13T05:54:17.421Z,8.53
2022-11-13T05:56:49.590Z,8.53
2022-11-13T05:59:21.516Z,8.53
2022-11-13T06:01:53.509Z,8.53
2022-11-13T06:04:25.690Z,8.51
2022-11-13T06:06:57.576Z,8.50
2022-11-13T06:09:30.364Z,8.50
2022-11-13T06:12:02.105Z,8.49
2022-11-13T06:14:34.066Z,8.50
2022-11-13T06:17:06.186Z,8.51
2022-11-13T06:19:39.525Z,8.50
2022-11-13T06:22:11.351Z,8.49
2022-11-13T06:24:43.488Z,8.48
2022-11-13T06:27:15.391Z,8.48
2022-11-13T06:29:47.444Z,8.46
2022-11-13T06:32:19.419Z,8.47
2022-11-13T06:34:51.370Z,8.47
2022-11-13T06:37:23.243Z,8.48
2022-11-13T06:39:54.961Z,8.48
2022-11-13T06:42:26.893Z,8.50
2022-11-13T06:45:00.892Z,8.50
2022-11-13T06:47:31.324Z,8.50
2022-11-13T06:50:04.395Z,8.50
2022-11-13T06:52:37.405Z,8.49
2022-11-13T06:55:10.097Z,8.52
2022-11-13T06:57:43.185Z,8.54
2022-11-13T07:00:18.573Z,8.56
2022-11-13T07:02:52.494Z,8.58
2022-11-13T07:05:24.333Z,8.61
2022-11-13T07:07:56.388Z,8.63
2022-11-13T07:10:28.054Z,8.66
2022-11-13T07:13:03.300Z,8.68
2022-11-13T07:15:37.383Z,8.70
2022-11-13T07:18:09.848Z,8.71
2022-11-13T07:20:41.674Z,8.73
2022-11-13T07:23:14.297Z,8.74
2022-11-13T07:25:46.563Z,8.74
2022-11-13T07:28:18.541Z,8.74
2022-11-13T07:30:50.438Z,8.75
2022-11-13T07:33:22.674Z,8.78
2022-11-13T07:35:55.809Z,8.81
2022-11-13T07:38:28.216Z,8.83
2022-11-13T07:41:02.445Z,8.84
2022-11-13T07:43:32.652Z,8.86
2022-11-13T07:46:04.472Z,8.86
2022-11-13T07:48:36.693Z,8.84
2022-11-13T07:51:08.578Z,8.84
2022-11-13T07:53:40.490Z,8.83
2022-11-13T07:56:12.172Z,8.82
2022-11-13T07:58:44.359Z,8.83
2022-11-13T08:01:20.196Z,8.84
2022-11-13T08:03:52.362Z,8.87
2022-11-13T08:06:24.656Z,8.89
2022-11-13T08:08:56.443Z,8.91
2022-11-13T08:11:28.217Z,8.91
2022-11-13T08:14:00.149Z,8.93
2022-11-13T08:16:32.098Z,8.95
2022-11-13T08:19:07.523Z,8.95
2022-11-13T08:21:39.347Z,8.95
2022-11-13T08:24:12.098Z,8.94
2022-11-13T08:26:44.664Z,8.93
2022-11-13T08:29:16.457Z,8.93
2022-11-13T08:31:48.749Z,8.91
2022-11-13T08:34:21.882Z,8.91
2022-11-13T08:36:53.797Z,8.91
2022-11-13T08:39:25.905Z,8.89
2022-11-13T08:41:57.931Z,8.88
2022-11-13T08:44:31.866Z,8.87
2022-11-13T08:47:06.188Z,8.87
2022-11-13T08:49:37.878Z,8.86
2022-11-13T08:52:09.828Z,8.86
2022-11-13T08:54:42.721Z,8.85
2022-11-13T08:57:14.645Z,8.84
2022-11-13T08:59:46.480Z,8.84
2022-11-13T09:02:20.408Z,8.84
2022-11-13T09:04:52.692Z,8.81
2022-11-13T09:07:27.505Z,8.79
2022-11-13T09:09:59.878Z,8.80
2022-11-13T09:12:31.527Z,8.80
2022-11-13T09:15:03.337Z,8.77
2022-11-13T09:17:35.508Z,8.75
2022-11-13T09:20:13.519Z,8.76
2022-11-13T09:22:45.511Z,8.77
2022-11-13T09:25:17.688Z,8.79
2022-11-13T09:27:56.670Z,8.81
2022-11-13T09:30:29.253Z,8.82
2022-11-13T09:33:02.253Z,8.83
2022-11-13T09:35:37.431Z,8.85
2022-11-13T09:38:11.836Z,8.88
2022-11-13T09:40:48.763Z,8.88
2022-11-13T09:43:32.447Z,8.91
2022-11-13T09:46:07.587Z,8.92
2022-11-13T09:48:41.573Z,8.93
2022-11-13T09:51:14.671Z,8.94
2022-11-13T09:53:46.945Z,8.95
2022-11-13T09:56:29.402Z,8.96
2022-11-13T09:59:05.937Z,8.97
2022-11-13T10:01:46.064Z,9.00
2022-11-13T10:04:22.975Z,9.05
2022-11-13T10:07:05.983Z,9.07
2022-11-13T10:09:44.207Z,9.08
2022-11-13T10:12:16.303Z,9.08
2022-11-13T10:14:49.890Z,9.11
2022-11-13T10:17:26.216Z,9.12
2022-11-13T10:20:00.409Z,9.10
2022-11-13T10:22:38.806Z,9.08
2022-11-13T10:25:17.000Z,9.04
2022-11-13T10:27:52.268Z,9.02
2022-11-13T10:30:24.693Z,9.03
2022-11-13T10:33:02.746Z,9.05
2022-11-13T10:35:47.536Z,9.06
2022-11-13T10:38:25.047Z,9.07
2022-11-13T10:41:07.115Z,9.07
2022-11-13T10:43:49.864Z,9.09
2022-11-13T10:46:24.827Z,9.12
2022-11-13T10:48:57.152Z,9.16
2022-11-13T10:51:30.627Z,9.18
2022-11-13T10:54:12.470Z,9.16
2022-11-13T10:56:45.821Z,9.13
2022-11-13T10:59:19.861Z,9.12
2022-11-13T11:01:54.445Z,9.13
2022-11-13T11:04:30.101Z,9.17
2022-11-13T11:07:20.155Z,9.18
2022-11-13T11:09:54.133Z,9.19
2022-11-13T11:12:30.986Z,9.20
2022-11-13T11:15:11.645Z,9.23
2022-11-13T11:17:45.876Z,9.23
2022-11-13T11:20:25.665Z,9.26
2022-11-13T11:23:03.861Z,9.28
2022-11-13T11:25:39.916Z,9.29
2022-11-13T11:28:17.115Z,9.32
2022-11-13T11:30:53.794Z,9.30
2022-11-13T11:33:30.021Z,9.30
2022-11-13T11:36:05.033Z,9.30
2022-11-13T11:38:43.709Z,9.30
2022-11-13T11:41:17.638Z,9.28
2022-11-13T11:43:54.832Z,9.27
2022-11-13T11:46:28.561Z,9.26
2022-11-13T11:49:03.222Z,9.26
2022-11-13T11:51:40.637Z,9.26
2022-11-13T11:54:24.445Z,9.28
2022-11-13T11:56:56.874Z,9.30
2022-11-13T11:59:52.256Z,9.30
2022-11-13T12:02:56.426Z,9.32
2022-11-13T12:05:31.434Z,9.30
2022-11-13T12:08:10.737Z,9.33
2022-11-13T12:10:50.869Z,9.35
2022-11-13T12:13:31.526Z,9.37
2022-11-13T12:16:12.116Z,9.39
2022-11-13T12:18:50.408Z,9.41
2022-11-13T12:21:28.707Z,9.43
2022-11-13T12:24:20.282Z,9.42
2022-11-13T12:27:01.887Z,9.44
2022-11-13T12:29:47.749Z,9.46
2022-11-13T12:32:22.504Z,9.50
2022-11-13T12:34:56.722Z,9.49
2022-11-13T12:37:38.026Z,9.50
2022-11-13T12:40:22.684Z,9.51
2022-11-13T12:43:26.800Z,9.50
2022-11-13T12:46:02.573Z,9.50
2022-11-13T12:48:38.349Z,9.52
2022-11-13T12:51:12.877Z,9.53
2022-11-13T12:53:52.759Z,9.56
2022-11-13T12:56:34.654Z,9.58
2022-11-13T12:59:30.261Z,9.57
2022-11-13T13:02:17.257Z,9.59
2022-11-13T13:04:59.822Z,9.61
2022-11-13T13:07:48.037Z,9.62
2022-11-13T13:10:25.842Z,9.62
2022-11-13T13:13:03.735Z,9.63
2022-11-13T13:15:38.094Z,9.63
2022-11-13T13:18:25.502Z,9.63
2022-11-13T13:21:08.283Z,9.62
2022-11-13T13:23:42.597Z,9.62
2022-11-13T13:26:21.824Z,9.63
2022-11-13T13:28:56.165Z,9.62
2022-11-13T13:31:39.051Z,9.63
2022-11-13T13:34:29.903Z,9.63
2022-11-13T13:37:17.139Z,9.61
2022-11-13T13:40:03.102Z,9.60
2022-11-13T13:42:51.331Z,9.58
2022-11-13T13:45:36.105Z,9.57
2022-11-13T13:48:20.549Z,9.56
2022-11-13T13:50:53.661Z,9.55
2022-11-13T13:53:29.025Z,9.54
2022-11-13T13:56:03.814Z,9.53
2022-11-13T13:58:37.150Z,9.53
2022-11-13T14:01:19.633Z,9.53
2022-11-13T14:03:53.837Z,9.53
2022-11-13T14:06:28.058Z,9.54
2022-11-13T14:09:12.513Z,9.53
2022-11-13T14:11:45.113Z,9.53
2022-11-13T14:14:21.254Z,9.54
2022-11-13T14:16:55.179Z,9.53
2022-11-13T14:19:27.698Z,9.53
2022-11-13T14:22:04.711Z,9.52
2022-11-13T14:24:40.959Z,9.52
2022-11-13T14:27:17.467Z,9.52
2022-11-13T14:29:51.251Z,9.51
2022-11-13T14:32:28.644Z,9.51
2022-11-13T14:35:02.382Z,9.49
2022-11-13T14:37:39.065Z,9.48
2022-11-13T14:40:21.966Z,9.48
2022-11-13T14:42:55.866Z,9.48
2022-11-13T14:45:29.447Z,9.47
2022-11-13T14:48:06.343Z,9.47
2022-11-13T14:50:42.482Z,9.45
2022-11-13T14:53:16.931Z,9.45
2022-11-13T14:55:56.443Z,9.44
2022-11-13T14:58:33.982Z,9.42
2022-11-13T15:01:17.698Z,9.41
2022-11-13T15:03:51.680Z,9.40
2022-11-13T15:06:27.046Z,9.38
2022-11-13T15:09:01.096Z,9.37
2022-11-13T15:11:32.756Z,9.34
2022-11-13T15:14:10.419Z,9.32
2022-11-13T15:16:45.264Z,9.30
2022-11-13T15:19:20.209Z,9.28
2022-11-13T15:22:25.438Z,9.28
2022-11-13T15:24:45.862Z,9.27
2022-11-13T15:27:18.354Z,9.25
2022-11-13T15:29:50.769Z,9.24
2022-11-13T15:32:23.318Z,9.22
2022-11-13T15:34:56.442Z,9.21
2022-11-13T15:37:30.748Z,9.19
2022-11-13T15:40:05.099Z,9.18
2022-11-13T15:42:38.409Z,9.16
2022-11-13T15:45:16.486Z,9.15
2022-11-13T15:47:48.362Z,9.14
2022-11-13T15:50:30.771Z,9.13
2022-11-13T15:53:05.367Z,9.13
2022-11-13T15:55:39.653Z,9.12
2022-11-13T15:58:17.141Z,9.13
2022-11-13T16:00:51.236Z,9.13
2022-11-13T16:03:29.018Z,9.14
2022-11-13T16:06:03.942Z,9.16
2022-11-13T16:08:35.751Z,9.16
2022-11-13T16:11:08.510Z,9.17
2022-11-13T16:13:40.174Z,9.16
2022-11-13T16:16:17.332Z,9.17
2022-11-13T16:18:55.817Z,9.17
2022-11-13T16:21:32.054Z,9.17
2022-11-13T16:24:04.286Z,9.17
2022-11-13T16:26:38.239Z,9.17
2022-11-13T16:29:21.857Z,9.16
2022-11-13T16:31:54.946Z,9.17
2022-11-13T16:34:26.939Z,9.17
2022-11-13T16:37:01.118Z,9.18
2022-11-13T16:39:33.623Z,9.17
2022-11-13T16:42:06.480Z,9.15
2022-11-13T16:44:39.479Z,9.13
2022-11-13T16:47:23.734Z,9.13
2022-11-13T16:49:58.319Z,9.11
2022-11-13T16:52:33.663Z,9.09
2022-11-13T16:55:06.811Z,9.09
2022-11-13T16:57:40.267Z,9.07
2022-11-13T17:00:17.935Z,9.04
2022-11-13T17:02:56.926Z,9.02
2022-11-13T17:05:29.590Z,9.00
2022-11-13T17:08:17.959Z,8.99
2022-11-13T17:10:52.548Z,8.97
2022-11-13T17:13:28.231Z,8.95
2022-11-13T17:16:04.417Z,8.95
2022-11-13T17:18:41.251Z,8.94
2022-11-13T17:21:14.466Z,8.93
2022-11-13T17:23:51.809Z,8.92
2022-11-13T17:26:23.832Z,8.92
2022-11-13T17:28:59.032Z,8.91
2022-11-13T17:31:31.064Z,8.89
2022-11-13T17:34:05.402Z,8.90
2022-11-13T17:36:41.091Z,8.90
2022-11-13T17:39:13.554Z,8.89
2022-11-13T17:41:45.291Z,8.89
2022-11-13T17:44:22.496Z,8.88
2022-11-13T17:46:54.950Z,8.88
2022-11-13T17:49:33.768Z,8.87
2022-11-13T17:52:07.364Z,8.87
2022-11-13T17:54:40.461Z,8.87
2022-11-13T17:57:13.174Z,8.87
2022-11-13T17:59:49.701Z,8.87
2022-11-13T18:02:21.461Z,8.86
2022-11-13T18:04:56.451Z,8.86
2022-11-13T18:07:31.276Z,8.85
2022-11-13T18:10:04.275Z,8.85
2022-11-13T18:12:36.092Z,8.84
2022-11-13T18:15:09.287Z,8.84
2022-11-13T18:17:41.163Z,8.83
2022-11-13T18:20:14.163Z,8.82
2022-11-13T18:22:46.132Z,8.81
2022-11-13T18:25:18.291Z,8.79
2022-11-13T18:27:50.752Z,8.79
2022-11-13T18:30:23.271Z,8.78
2022-11-13T18:32:57.353Z,8.77
2022-11-13T18:35:29.500Z,8.77
2022-11-13T18:38:01.872Z,8.76
2022-11-13T18:40:40.013Z,8.76
2022-11-13T18:43:12.985Z,8.75
2022-11-13T18:45:45.167Z,8.74
2022-11-13T18:48:26.545Z,8.74
2022-11-13T18:51:01.160Z,8.72
2022-11-13T18:53:33.208Z,8.71
2022-11-13T18:56:07.496Z,8.70
2022-11-13T18:58:40.480Z,8.71
2022-11-13T19:01:17.496Z,8.70
2022-11-13T19:04:16.591Z,8.69
2022-11-13T19:06:47.201Z,8.68
2022-11-13T19:09:19.937Z,8.68
2022-11-13T19:11:52.089Z,8.67
2022-11-13T19:14:24.273Z,8.67
2022-11-13T19:16:56.688Z,8.66
2022-11-13T19:19:28.905Z,8.65
2022-11-13T19:22:01.376Z,8.65
2022-11-13T19:24:34.015Z,8.65
2022-11-13T19:27:06.482Z,8.64
2022-11-13T19:29:38.964Z,8.63
2022-11-13T19:32:11.877Z,8.62
2022-11-13T19:34:46.386Z,8.60
2022-11-13T19:37:20.767Z,8.60
2022-11-13T19:39:52.569Z,8.58
2022-11-13T19:42:25.035Z,8.57
2022-11-13T19:44:56.796Z,8.56
2022-11-13T19:47:28.985Z,8.54
2022-11-13T19:50:01.874Z,8.54
2022-11-13T19:52:36.999Z,8.53
2022-11-13T19:55:10.359Z,8.53
2022-11-13T19:57:46.045Z,8.51
2022-11-13T20:00:19.910Z,8.49
2022-11-13T20:02:51.921Z,8.47
2022-11-13T20:05:26.014Z,8.45
2022-11-13T20:07:58.858Z,8.44
2022-11-13T20:10:30.437Z,8.41
2022-11-13T20:13:02.843Z,8.39
2022-11-13T20:15:34.873Z,8.35
2022-11-13T20:18:07.472Z,8.33
2022-11-13T20:20:41.009Z,8.31
2022-11-13T20:23:14.570Z,8.29
2022-11-13T20:25:53.903Z,8.27
2022-11-13T20:28:28.233Z,8.25
2022-11-13T20:31:04.693Z,8.21
2022-11-13T20:33:37.204Z,8.18
2022-11-13T20:36:10.112Z,8.16
2022-11-13T20:38:44.478Z,8.14
2022-11-13T20:41:16.881Z,8.12
2022-11-13T20:43:49.035Z,8.12
2022-11-13T20:46:22.046Z,8.11
2022-11-13T20:48:54.737Z,8.10
2022-11-13T20:51:28.696Z,8.09
2022-11-13T20:53:59.350Z,8.08
2022-11-13T20:56:31.133Z,8.06
2022-11-13T20:59:07.677Z,8.05
2022-11-13T21:01:39.445Z,8.05
2022-11-13T21:04:11.432Z,8.04
2022-11-13T21:06:43.136Z,8.04
2022-11-13T21:09:14.957Z,8.04
2022-11-13T21:11:46.675Z,8.05
2022-11-13T21:14:20.751Z,8.05
2022-11-13T21:16:52.385Z,8.05
2022-11-13T21:19:25.206Z,8.05
2022-11-13T21:21:56.871Z,8.05
2022-11-13T21:24:28.876Z,8.04
2022-11-13T21:27:02.124Z,8.04
2022-11-13T21:29:35.122Z,8.03
2022-11-13T21:32:07.258Z,8.01
2022-11-13T21:34:39.424Z,8.01
2022-11-13T21:37:14.505Z,8.00
2022-11-13T21:39:49.228Z,7.99
2022-11-13T21:42:21.581Z,7.98
2022-11-13T21:44:53.787Z,7.99
2022-11-13T21:47:26.560Z,7.98
2022-11-13T21:49:59.549Z,7.99
2022-11-13T21:52:32.449Z,7.98
2022-11-13T21:55:04.627Z,7.98
2022-11-13T21:57:36.726Z,7.97
2022-11-13T22:00:12.545Z,7.97
2022-11-13T22:02:48.657Z,7.96
2022-11-13T22:05:22.898Z,7.97
2022-11-13T22:07:54.964Z,7.99
2022-11-13T22:10:28.032Z,7.99
2022-11-13T22:13:00.124Z,7.99
2022-11-13T22:15:32.445Z,7.99
2022-11-13T22:18:04.221Z,8.01
2022-11-13T22:20:39.698Z,8.01
2022-11-13T22:23:11.451Z,8.00
2022-11-13T22:25:44.945Z,7.99
2022-11-13T22:28:20.268Z,7.99
2022-11-13T22:30:53.583Z,7.99
2022-11-13T22:33:29.222Z,7.98
2022-11-13T22:36:07.074Z,7.98
2022-11-13T22:38:40.629Z,7.97
2022-11-13T22:41:22.544Z,7.95
2022-11-13T22:44:03.055Z,7.93
2022-11-13T22:46:37.716Z,7.92
2022-11-13T22:49:11.891Z,7.91
2022-11-13T22:51:44.585Z,7.91
2022-11-13T22:54:16.324Z,7.90
2022-11-13T22:56:49.432Z,7.89
2022-11-13T22:59:21.489Z,7.89
2022-11-13T23:01:54.002Z,7.88
2022-11-13T23:04:26.042Z,7.87
2022-11-13T23:06:58.603Z,7.87
2022-11-13T23:09:31.489Z,7.86
2022-11-13T23:12:03.730Z,7.86
2022-11-13T23:14:35.453Z,7.85
2022-11-13T23:17:07.622Z,7.84
2022-11-13T23:19:40.793Z,7.84
2022-11-13T23:22:13.180Z,7.83
2022-11-13T23:24:45.160Z,7.82
2022-11-13T23:27:17.170Z,7.82
2022-11-13T23:29:50.456Z,7.81
2022-11-13T23:32:22.691Z,7.80
2022-11-13T23:34:59.626Z,7.81
2022-11-13T23:37:32.488Z,7.81
2022-11-13T23:40:04.229Z,7.81
2022-11-13T23:42:54.285Z,7.81
2022-11-13T23:45:27.100Z,7.81
2022-11-13T23:47:59.202Z,7.81
2022-11-13T23:50:31.474Z,7.82
2022-11-13T23:53:03.714Z,7.82
2022-11-13T23:55:35.770Z,7.83
2022-11-13T23:58:12.002Z,7.83
